createdAt,value
2018-02-14T00:00:41.090Z,-2.12
2018-02-14T00:01:41.006Z,-2.10
2018-02-14T00:02:40.920Z,-2.18
2018-02-14T00:03:40.830Z,-2.15
2018-02-14T00:04:40.750Z,-2.18
2018-02-14T00:05:40.663Z,-2.18
2018-02-14T00:06:40.568Z,-2.18
2018-02-14T00:07:40.483Z,-2.24
2018-02-14T00:08:40.411Z,-2.18
2018-02-14T00:09:40.310Z,-2.15
2018-02-14T00:10:40.228Z,-2.13
2018-02-14T00:11:40.160Z,-2.21
2018-02-14T00:12:40.090Z,-2.16
2018-02-14T00:13:39.967Z,-2.08
2018-02-14T00:14:39.887Z,-2.06
2018-02-14T00:15:39.795Z,-2.05
2018-02-14T00:16:39.713Z,-2.10
2018-02-14T00:17:39.631Z,-2.05
2018-02-14T00:18:39.529Z,-2.08
2018-02-14T00:19:39.451Z,-2.05
2018-02-14T00:20:39.358Z,-2.03
2018-02-14T00:21:39.280Z,-2.02
2018-02-14T00:22:39.209Z,-1.98
2018-02-14T00:23:39.109Z,-2.08
2018-02-14T00:24:39.033Z,-1.98
2018-02-14T00:25:38.938Z,-2.03
2018-02-14T00:26:38.855Z,-2.02
2018-02-14T00:27:38.757Z,-2.02
2018-02-14T00:28:38.684Z,-2.03
2018-02-14T00:29:38.579Z,-2.05
2018-02-14T00:30:38.513Z,-2.12
2018-02-14T00:31:38.419Z,-2.13
2018-02-14T00:32:38.336Z,-2.08
2018-02-14T00:33:38.252Z,-2.20
2018-02-14T00:34:38.157Z,-2.18
2018-02-14T00:35:38.083Z,-2.15
2018-02-14T00:36:37.985Z,-2.15
2018-02-14T00:37:37.892Z,-2.20
2018-02-14T00:38:37.814Z,-2.29
2018-02-14T00:39:37.731Z,-2.29
2018-02-14T00:40:37.637Z,-2.27
2018-02-14T00:41:37.553Z,-2.35
2018-02-14T00:42:37.459Z,-2.24
2018-02-14T00:43:37.387Z,-2.29
2018-02-14T00:44:37.294Z,-2.23
2018-02-14T00:45:37.205Z,-2.30
2018-02-14T00:46:37.141Z,-2.24
2018-02-14T00:47:37.036Z,-2.32
2018-02-14T00:48:36.951Z,-2.37
2018-02-14T00:49:36.861Z,-2.39
2018-02-14T00:50:36.786Z,-2.40
2018-02-14T00:51:36.688Z,-2.40
2018-02-14T00:52:36.595Z,-2.42
2018-02-14T00:53:36.507Z,-2.30
2018-02-14T00:54:36.436Z,-2.32
2018-02-14T00:55:36.356Z,-2.35
2018-02-14T00:56:36.265Z,-2.32
2018-02-14T00:57:36.179Z,-2.23
2018-02-14T00:58:36.081Z,-2.32
2018-02-14T00:59:36.006Z,-2.30
2018-02-14T01:00:35.909Z,-2.39
2018-02-14T01:01:35.826Z,-2.34
2018-02-14T01:02:35.741Z,-2.34
2018-02-14T01:03:35.657Z,-2.39
2018-02-14T01:04:35.564Z,-2.27
2018-02-14T01:05:35.490Z,-2.37
2018-02-14T01:06:35.408Z,-2.29
2018-02-14T01:07:35.318Z,-2.40
2018-02-14T01:08:35.234Z,-2.26
2018-02-14T01:09:35.137Z,-2.32
2018-02-14T01:10:35.054Z,-2.37
2018-02-14T01:11:34.961Z,-2.37
2018-02-14T01:12:34.894Z,-2.26
2018-02-14T01:13:34.792Z,-2.29
2018-02-14T01:14:34.703Z,-2.16
2018-02-14T01:15:34.616Z,-2.30
2018-02-14T01:16:34.534Z,-2.30
2018-02-14T01:17:34.458Z,-2.29
2018-02-14T01:18:34.363Z,-2.26
2018-02-14T01:19:34.274Z,-2.37
2018-02-14T01:20:34.190Z,-2.24
2018-02-14T01:21:34.117Z,-2.30
2018-02-14T01:22:34.012Z,-2.30
2018-02-14T01:23:33.939Z,-2.39
2018-02-14T01:24:33.835Z,-2.42
2018-02-14T01:25:33.754Z,-2.39
2018-02-14T01:26:33.669Z,-2.42
2018-02-14T01:27:33.584Z,-2.52
2018-02-14T01:28:33.518Z,-2.64
2018-02-14T01:29:33.415Z,-2.58
2018-02-14T01:30:33.335Z,-2.55
2018-02-14T01:31:33.242Z,-2.52
2018-02-14T01:32:33.154Z,-2.53
2018-02-14T01:33:33.066Z,-2.55
2018-02-14T01:34:32.995Z,-2.53
2018-02-14T01:35:32.886Z,-2.52
2018-02-14T01:36:32.803Z,-2.46
2018-02-14T01:37:32.715Z,-2.45
2018-02-14T01:38:32.628Z,-2.43
2018-02-14T01:39:32.546Z,-2.39
2018-02-14T01:40:32.463Z,-2.42
2018-02-14T01:41:32.377Z,-2.35
2018-02-14T01:42:32.295Z,-2.48
2018-02-14T01:43:32.203Z,-2.50
2018-02-14T01:44:32.114Z,-2.45
2018-02-14T01:45:32.044Z,-2.39
2018-02-14T01:46:31.941Z,-2.43
2018-02-14T01:47:31.852Z,-2.40
2018-02-14T01:48:31.772Z,-2.30
2018-02-14T01:49:31.684Z,-2.40
2018-02-14T01:50:31.590Z,-2.34
2018-02-14T01:51:31.522Z,-2.42
2018-02-14T01:52:31.418Z,-2.40
2018-02-14T01:53:31.337Z,-2.40
2018-02-14T01:54:31.259Z,-2.50
2018-02-14T01:55:31.167Z,-2.45
2018-02-14T01:56:31.087Z,-2.46
2018-02-14T01:57:30.995Z,-2.53
2018-02-14T01:58:30.915Z,-2.48
2018-02-14T01:59:30.821Z,-2.55
2018-02-14T02:00:30.729Z,-2.50
2018-02-14T02:01:30.640Z,-2.49
2018-02-14T02:02:30.558Z,-2.46
2018-02-14T02:03:30.463Z,-2.53
2018-02-14T02:04:30.381Z,-2.56
2018-02-14T02:05:30.301Z,-2.58
2018-02-14T02:06:30.213Z,-2.60
2018-02-14T02:07:30.144Z,-2.66
2018-02-14T02:08:30.041Z,-2.71
2018-02-14T02:09:29.968Z,-2.68
2018-02-14T02:10:29.875Z,-2.70
2018-02-14T02:11:29.783Z,-2.78
2018-02-14T02:12:29.694Z,-2.79
2018-02-14T02:13:29.630Z,-2.71
2018-02-14T02:14:29.515Z,-2.71
2018-02-14T02:15:29.433Z,-2.74
2018-02-14T02:16:29.351Z,-2.64
2018-02-14T02:17:29.257Z,-2.66
2018-02-14T02:18:29.176Z,-2.68
2018-02-14T02:19:29.096Z,-2.66
2018-02-14T02:20:28.998Z,-2.67
2018-02-14T02:21:28.928Z,-2.78
2018-02-14T02:22:28.842Z,-2.79
2018-02-14T02:23:28.745Z,-2.74
2018-02-14T02:24:28.654Z,-2.79
2018-02-14T02:25:28.570Z,-2.81
2018-02-14T02:26:28.495Z,-2.73
2018-02-14T02:27:28.393Z,-2.74
2018-02-14T02:28:28.310Z,-2.84
2018-02-14T02:29:28.226Z,-2.74
2018-02-14T02:30:28.143Z,-2.78
2018-02-14T02:31:28.052Z,-2.74
2018-02-14T02:32:27.959Z,-2.77
2018-02-14T02:33:27.870Z,-2.78
2018-02-14T02:34:27.798Z,-2.77
2018-02-14T02:35:27.705Z,-2.77
2018-02-14T02:36:27.621Z,-2.77
2018-02-14T02:37:27.534Z,-2.74
2018-02-14T02:38:27.442Z,-2.73
2018-02-14T02:39:27.364Z,-2.71
2018-02-14T02:40:27.270Z,-2.78
2018-02-14T02:41:27.184Z,-2.74
2018-02-14T02:42:27.109Z,-2.73
2018-02-14T02:43:27.007Z,-2.70
2018-02-14T02:44:26.927Z,-2.67
2018-02-14T02:45:26.839Z,-2.66
2018-02-14T02:46:26.749Z,-2.78
2018-02-14T02:47:26.666Z,-2.73
2018-02-14T02:48:26.571Z,-2.74
2018-02-14T02:49:26.496Z,-2.88
2018-02-14T02:50:26.402Z,-2.84
2018-02-14T02:51:26.321Z,-2.86
2018-02-14T02:52:26.247Z,-2.79
2018-02-14T02:53:26.151Z,-2.94
2018-02-14T02:54:26.057Z,-2.88
2018-02-14T02:55:25.975Z,-2.81
2018-02-14T02:56:25.896Z,-2.84
2018-02-14T02:57:25.796Z,-2.92
2018-02-14T02:58:25.713Z,-2.92
2018-02-14T02:59:25.620Z,-2.79
2018-02-14T03:00:25.543Z,-2.91
2018-02-14T03:01:25.450Z,-2.89
2018-02-14T03:02:25.364Z,-2.96
2018-02-14T03:03:25.273Z,-2.73
2018-02-14T03:04:25.195Z,-2.85
2018-02-14T03:05:25.097Z,-2.89
2018-02-14T03:06:25.043Z,-2.81
2018-02-14T03:07:24.939Z,-2.82
2018-02-14T03:08:24.853Z,-2.81
2018-02-14T03:09:24.765Z,-2.82
2018-02-14T03:10:24.672Z,-2.86
2018-02-14T03:11:24.600Z,-2.86
2018-02-14T03:12:24.495Z,-2.85
2018-02-14T03:13:24.410Z,-2.85
2018-02-14T03:14:24.326Z,-2.84
2018-02-14T03:15:24.237Z,-2.79
2018-02-14T03:16:24.153Z,-2.85
2018-02-14T03:17:24.067Z,-2.92
2018-02-14T03:18:23.975Z,-2.91
2018-02-14T03:19:23.892Z,-2.92
2018-02-14T03:20:23.807Z,-2.92
2018-02-14T03:21:23.724Z,-2.89
2018-02-14T03:22:23.628Z,-2.89
2018-02-14T03:23:23.548Z,-2.94
2018-02-14T03:24:23.457Z,-3.06
2018-02-14T03:25:23.382Z,-3.03
2018-02-14T03:26:23.287Z,-2.94
2018-02-14T03:27:23.206Z,-3.02
2018-02-14T03:28:23.124Z,-2.92
2018-02-14T03:29:23.025Z,-2.99
2018-02-14T03:30:22.959Z,-2.97
2018-02-14T03:31:22.849Z,-2.91
2018-02-14T03:32:22.765Z,-2.88
2018-02-14T03:33:22.677Z,-2.91
2018-02-14T03:34:22.586Z,-2.92
2018-02-14T03:35:22.508Z,-2.91
2018-02-14T03:36:22.426Z,-2.99
2018-02-14T03:37:22.329Z,-3.03
2018-02-14T03:38:22.253Z,-2.99
2018-02-14T03:39:22.163Z,-2.89
2018-02-14T03:40:22.073Z,-2.92
2018-02-14T03:41:21.982Z,-2.89
2018-02-14T03:42:21.901Z,-2.91
2018-02-14T03:43:21.822Z,-2.92
2018-02-14T03:44:21.727Z,-2.91
2018-02-14T03:45:21.637Z,-2.99
2018-02-14T03:46:21.557Z,-3.00
2018-02-14T03:47:21.478Z,-3.05
2018-02-14T03:48:21.381Z,-3.02
2018-02-14T03:49:21.296Z,-3.09
2018-02-14T03:50:21.203Z,-3.09
2018-02-14T03:51:21.117Z,-3.17
2018-02-14T03:52:21.035Z,-3.31
2018-02-14T03:53:20.956Z,-3.25
2018-02-14T03:54:20.856Z,-3.21
2018-02-14T03:55:20.769Z,-3.33
2018-02-14T03:56:20.688Z,-3.35
2018-02-14T03:57:20.589Z,-3.31
2018-02-14T03:58:20.508Z,-3.28
2018-02-14T03:59:20.417Z,-3.21
2018-02-14T04:00:20.353Z,-3.23
2018-02-14T04:01:20.256Z,-3.20
2018-02-14T04:02:20.161Z,-3.17
2018-02-14T04:03:20.092Z,-3.21
2018-02-14T04:04:19.983Z,-3.18
2018-02-14T04:05:19.909Z,-3.25
2018-02-14T04:06:19.822Z,-3.18
2018-02-14T04:07:19.732Z,-3.20
2018-02-14T04:08:19.655Z,-3.25
2018-02-14T04:09:19.562Z,-3.27
2018-02-14T04:10:19.466Z,-3.30
2018-02-14T04:11:19.393Z,-3.36
2018-02-14T04:12:19.296Z,-3.41
2018-02-14T04:13:19.205Z,-3.41
2018-02-14T04:14:19.131Z,-3.30
2018-02-14T04:15:19.033Z,-3.31
2018-02-14T04:16:18.944Z,-3.18
2018-02-14T04:17:18.855Z,-3.18
2018-02-14T04:18:18.766Z,-3.21
2018-02-14T04:19:18.687Z,-3.21
2018-02-14T04:20:18.593Z,-3.20
2018-02-14T04:21:18.507Z,-3.23
2018-02-14T04:22:18.423Z,-3.25
2018-02-14T04:23:18.333Z,-3.23
2018-02-14T04:24:18.260Z,-3.21
2018-02-14T04:25:18.173Z,-3.30
2018-02-14T04:26:18.081Z,-3.35
2018-02-14T04:27:18.000Z,-3.27
2018-02-14T04:28:17.908Z,-3.30
2018-02-14T04:29:17.818Z,-3.30
2018-02-14T04:30:17.738Z,-3.30
2018-02-14T04:31:17.660Z,-3.30
2018-02-14T04:32:17.561Z,-3.28
2018-02-14T04:33:17.477Z,-3.28
2018-02-14T04:34:17.382Z,-3.25
2018-02-14T04:35:17.298Z,-3.27
2018-02-14T04:36:17.206Z,-3.27
2018-02-14T04:37:17.122Z,-3.28
2018-02-14T04:38:17.034Z,-3.31
2018-02-14T04:39:16.947Z,-3.27
2018-02-14T04:40:16.867Z,-3.31
2018-02-14T04:41:16.776Z,-3.33
2018-02-14T04:42:16.687Z,-3.30
2018-02-14T04:43:16.604Z,-3.31
2018-02-14T04:44:16.507Z,-3.33
2018-02-14T04:45:16.421Z,-3.41
2018-02-14T04:46:16.337Z,-3.38
2018-02-14T04:47:16.258Z,-3.42
2018-02-14T04:48:16.164Z,-3.39
2018-02-14T04:49:16.089Z,-3.42
2018-02-14T04:50:15.994Z,-3.41
2018-02-14T04:51:15.919Z,-3.45
2018-02-14T04:52:15.822Z,-3.42
2018-02-14T04:53:15.736Z,-3.39
2018-02-14T04:54:15.662Z,-3.38
2018-02-14T04:55:15.560Z,-3.41
2018-02-14T04:56:15.480Z,-3.39
2018-02-14T04:57:15.385Z,-3.39
2018-02-14T04:58:15.302Z,-3.41
2018-02-14T04:59:15.217Z,-3.39
2018-02-14T05:00:15.122Z,-3.42
2018-02-14T05:01:15.038Z,-3.42
2018-02-14T05:02:14.953Z,-3.46
2018-02-14T05:03:14.864Z,-3.36
2018-02-14T05:04:14.786Z,-3.38
2018-02-14T05:05:14.687Z,-3.41
2018-02-14T05:06:14.595Z,-3.35
2018-02-14T05:07:14.518Z,-3.36
2018-02-14T05:08:14.434Z,-3.41
2018-02-14T05:09:14.340Z,-3.31
2018-02-14T05:10:14.255Z,-3.25
2018-02-14T05:11:14.162Z,-3.18
2018-02-14T05:12:14.079Z,-3.17
2018-02-14T05:13:13.991Z,-3.15
2018-02-14T05:14:13.911Z,-3.15
2018-02-14T05:15:13.826Z,-3.14
2018-02-14T05:16:13.740Z,-3.14
2018-02-14T05:17:13.659Z,-3.25
2018-02-14T05:18:13.564Z,-3.30
2018-02-14T05:19:13.490Z,-3.24
2018-02-14T05:20:13.442Z,-3.24
2018-02-14T05:21:13.315Z,-3.27
2018-02-14T05:22:13.212Z,-3.27
2018-02-14T05:23:13.128Z,-3.31
2018-02-14T05:24:13.041Z,-3.27
2018-02-14T05:25:12.964Z,-3.30
2018-02-14T05:26:12.881Z,-3.21
2018-02-14T05:27:12.784Z,-3.25
2018-02-14T05:28:12.688Z,-3.30
2018-02-14T05:29:12.602Z,-3.25
2018-02-14T05:30:12.511Z,-3.31
2018-02-14T05:31:12.443Z,-3.35
2018-02-14T05:32:12.338Z,-3.41
2018-02-14T05:33:12.250Z,-3.35
2018-02-14T05:34:12.171Z,-3.28
2018-02-14T05:35:12.075Z,-3.39
2018-02-14T05:36:11.994Z,-3.35
2018-02-14T05:37:11.905Z,-3.28
2018-02-14T05:38:11.828Z,-3.30
2018-02-14T05:39:11.742Z,-3.25
2018-02-14T05:40:11.640Z,-3.23
2018-02-14T05:41:11.562Z,-3.30
2018-02-14T05:42:11.482Z,-3.27
2018-02-14T05:43:11.390Z,-3.33
2018-02-14T05:44:11.307Z,-3.38
2018-02-14T05:45:11.218Z,-3.39
2018-02-14T05:46:11.131Z,-3.42
2018-02-14T05:47:11.041Z,-3.42
2018-02-14T05:48:10.962Z,-3.38
2018-02-14T05:49:10.868Z,-3.41
2018-02-14T05:50:10.779Z,-3.38
2018-02-14T05:51:10.690Z,-3.41
2018-02-14T05:52:10.619Z,-3.42
2018-02-14T05:53:10.521Z,-3.41
2018-02-14T05:54:10.429Z,-3.31
2018-02-14T05:55:10.343Z,-3.41
2018-02-14T05:56:10.263Z,-3.42
2018-02-14T05:57:10.193Z,-3.46
2018-02-14T05:58:10.085Z,-3.38
2018-02-14T05:59:09.995Z,-3.38
2018-02-14T06:00:09.912Z,-3.39
2018-02-14T06:01:09.816Z,-3.43
2018-02-14T06:02:09.733Z,-3.39
2018-02-14T06:03:09.646Z,-3.39
2018-02-14T06:04:09.572Z,-3.42
2018-02-14T06:05:09.477Z,-3.41
2018-02-14T06:06:09.394Z,-3.39
2018-02-14T06:07:09.307Z,-3.38
2018-02-14T06:08:09.214Z,-3.41
2018-02-14T06:09:09.143Z,-3.45
2018-02-14T06:10:09.044Z,-3.42
2018-02-14T06:11:08.959Z,-3.35
2018-02-14T06:12:08.871Z,-3.36
2018-02-14T06:13:08.784Z,-3.43
2018-02-14T06:14:08.693Z,-3.42
2018-02-14T06:15:08.615Z,-3.48
2018-02-14T06:16:08.517Z,-3.54
2018-02-14T06:17:08.434Z,-3.56
2018-02-14T06:18:08.348Z,-3.52
2018-02-14T06:19:08.259Z,-3.53
2018-02-14T06:20:08.176Z,-3.53
2018-02-14T06:21:08.099Z,-3.54
2018-02-14T06:22:07.991Z,-3.57
2018-02-14T06:23:07.923Z,-3.43
2018-02-14T06:24:07.825Z,-3.57
2018-02-14T06:25:07.747Z,-3.53
2018-02-14T06:26:07.649Z,-3.48
2018-02-14T06:27:07.556Z,-3.45
2018-02-14T06:28:07.471Z,-3.56
2018-02-14T06:29:07.389Z,-3.48
2018-02-14T06:30:07.292Z,-3.52
2018-02-14T06:31:07.226Z,-3.54
2018-02-14T06:32:07.129Z,-3.45
2018-02-14T06:33:07.042Z,-3.41
2018-02-14T06:34:06.961Z,-3.46
2018-02-14T06:35:06.870Z,-3.35
2018-02-14T06:36:06.787Z,-3.36
2018-02-14T06:37:06.699Z,-3.36
2018-02-14T06:38:06.608Z,-3.42
2018-02-14T06:39:06.522Z,-3.38
2018-02-14T06:40:06.431Z,-3.41
2018-02-14T06:41:06.350Z,-3.36
2018-02-14T06:42:06.260Z,-3.38
2018-02-14T06:43:06.171Z,-3.33
2018-02-14T06:44:06.104Z,-3.31
2018-02-14T06:45:06.002Z,-3.31
2018-02-14T06:46:05.910Z,-3.20
2018-02-14T06:47:05.827Z,-3.17
2018-02-14T06:48:05.735Z,-3.12
2018-02-14T06:49:05.650Z,-3.09
2018-02-14T06:50:05.564Z,-3.14
2018-02-14T06:51:05.469Z,-3.00
2018-02-14T06:52:05.390Z,-2.96
2018-02-14T06:53:05.299Z,-2.89
2018-02-14T06:54:05.218Z,-2.97
2018-02-14T06:55:05.127Z,-2.94
2018-02-14T06:56:05.056Z,-3.02
2018-02-14T06:57:04.960Z,-2.92
2018-02-14T06:58:04.879Z,-2.92
2018-02-14T06:59:04.784Z,-2.92
2018-02-14T07:00:04.699Z,-2.92
2018-02-14T07:01:04.624Z,-2.92
2018-02-14T07:02:04.521Z,-2.92
2018-02-14T07:03:04.485Z,-2.96
2018-02-14T07:04:04.348Z,-2.96
2018-02-14T07:05:04.262Z,-2.89
2018-02-14T07:06:04.176Z,-2.79
2018-02-14T07:07:04.085Z,-2.82
2018-02-14T07:08:03.999Z,-2.85
2018-02-14T07:09:03.913Z,-2.78
2018-02-14T07:10:03.828Z,-2.73
2018-02-14T07:11:03.742Z,-2.70
2018-02-14T07:12:03.651Z,-2.70
2018-02-14T07:13:03.575Z,-2.70
2018-02-14T07:14:03.485Z,-2.63
2018-02-14T07:15:03.396Z,-2.68
2018-02-14T07:16:03.303Z,-2.49
2018-02-14T07:17:03.232Z,-2.50
2018-02-14T07:18:03.150Z,-2.46
2018-02-14T07:19:03.058Z,-2.39
2018-02-14T07:20:02.976Z,-2.30
2018-02-14T07:21:02.874Z,-2.27
2018-02-14T07:22:02.791Z,-2.15
2018-02-14T07:23:02.704Z,-2.12
2018-02-14T07:24:02.629Z,-2.20
2018-02-14T07:25:02.533Z,-2.05
2018-02-14T07:26:02.438Z,-1.98
2018-02-14T07:27:02.360Z,-2.00
2018-02-14T07:28:02.261Z,-1.95
2018-02-14T07:29:02.187Z,-1.94
2018-02-14T07:30:02.090Z,-1.97
2018-02-14T07:31:02.004Z,-1.87
2018-02-14T07:32:01.930Z,-1.67
2018-02-14T07:33:01.844Z,-1.69
2018-02-14T07:34:01.757Z,-1.73
2018-02-14T07:35:01.670Z,-1.69
2018-02-14T07:36:01.579Z,-1.69
2018-02-14T07:37:01.490Z,-1.66
2018-02-14T07:38:01.426Z,-1.61
2018-02-14T07:39:01.344Z,-1.58
2018-02-14T07:40:01.256Z,-1.54
2018-02-14T07:41:01.179Z,-1.54
2018-02-14T07:42:01.090Z,-1.46
2018-02-14T07:43:01.008Z,-1.43
2018-02-14T07:44:00.881Z,-1.37
2018-02-14T07:45:00.823Z,-1.31
2018-02-14T07:46:00.773Z,-1.37
2018-02-14T07:47:00.626Z,-1.25
2018-02-14T07:48:00.542Z,-1.33
2018-02-14T07:49:00.458Z,-1.27
2018-02-14T07:50:00.376Z,-1.33
2018-02-14T07:51:00.283Z,-1.31
2018-02-14T07:52:00.191Z,-1.23
2018-02-14T07:53:00.102Z,-1.15
2018-02-14T07:54:00.042Z,-1.13
2018-02-14T07:54:59.951Z,-1.10
2018-02-14T07:55:59.859Z,-1.12
2018-02-14T07:56:59.783Z,-1.17
2018-02-14T07:57:59.682Z,-1.15
2018-02-14T07:58:59.610Z,-1.10
2018-02-14T07:59:59.502Z,-1.05
2018-02-14T08:00:59.427Z,-0.94
2018-02-14T08:01:59.336Z,-0.89
2018-02-14T08:02:59.254Z,-0.91
2018-02-14T08:03:59.187Z,-0.86
2018-02-14T08:04:59.086Z,-0.91
2018-02-14T08:05:59.054Z,-0.80
2018-02-14T08:06:58.918Z,-0.89
2018-02-14T08:07:58.847Z,-0.85
2018-02-14T08:08:58.909Z,-0.86
2018-02-14T08:09:58.644Z,-0.85
2018-02-14T08:10:58.572Z,-0.78
2018-02-14T08:11:58.489Z,-0.79
2018-02-14T08:12:58.756Z,-0.73
2018-02-14T08:13:58.309Z,-0.73
2018-02-14T08:14:58.236Z,-0.65
2018-02-14T08:15:58.294Z,-0.65
2018-02-14T08:16:58.061Z,-0.69
2018-02-14T08:17:57.961Z,-0.54
2018-02-14T08:18:57.888Z,-0.37
2018-02-14T08:19:57.782Z,-0.28
2018-02-14T08:20:57.730Z,-0.16
2018-02-14T08:21:57.629Z,-0.18
2018-02-14T08:22:57.536Z,0.13
2018-02-14T08:23:57.460Z,0.24
2018-02-14T08:24:57.364Z,0.39
2018-02-14T08:25:57.288Z,0.68
2018-02-14T08:26:57.197Z,0.78
2018-02-14T08:27:57.152Z,0.93
2018-02-14T08:28:57.033Z,1.63
2018-02-14T08:29:56.937Z,1.55
2018-02-14T08:30:56.843Z,1.95
2018-02-14T08:31:56.759Z,1.88
2018-02-14T08:32:56.674Z,1.98
2018-02-14T08:33:56.594Z,1.59
2018-02-14T08:34:56.515Z,1.63
2018-02-14T08:35:56.432Z,2.00
2018-02-14T08:36:56.333Z,2.39
2018-02-14T08:37:56.262Z,2.05
2018-02-14T08:38:56.183Z,2.06
2018-02-14T08:39:56.089Z,1.93
2018-02-14T08:40:56.000Z,2.00
2018-02-14T08:41:55.911Z,2.07
2018-02-14T08:42:55.837Z,2.35
2018-02-14T08:43:55.811Z,2.49
2018-02-14T08:44:55.700Z,2.82
2018-02-14T08:45:55.663Z,2.82
2018-02-14T08:46:55.511Z,2.67
2018-02-14T08:47:55.418Z,2.59
2018-02-14T08:48:55.347Z,2.49
2018-02-14T08:49:55.509Z,2.36
2018-02-14T08:50:55.562Z,2.38
2018-02-14T08:51:55.109Z,2.43
2018-02-14T08:52:54.997Z,2.63
2018-02-14T08:53:54.934Z,2.53
2018-02-14T08:54:54.834Z,2.52
2018-02-14T08:55:54.752Z,2.48
2018-02-14T08:56:54.664Z,2.87
2018-02-14T08:57:54.586Z,3.14
2018-02-14T08:58:54.539Z,3.08
2018-02-14T08:59:54.413Z,3.40
2018-02-14T09:00:54.653Z,3.29
2018-02-14T09:01:54.318Z,3.40
2018-02-14T09:02:54.180Z,3.26
2018-02-14T09:03:54.087Z,3.15
2018-02-14T09:04:54.006Z,3.20
2018-02-14T09:05:53.914Z,2.99
2018-02-14T09:06:53.844Z,2.89
2018-02-14T09:07:53.750Z,3.14
2018-02-14T09:08:53.686Z,3.50
2018-02-14T09:09:53.616Z,3.48
2018-02-14T09:10:53.541Z,3.36
2018-02-14T09:11:53.461Z,3.15
2018-02-14T09:12:53.377Z,2.87
2018-02-14T09:13:53.249Z,2.85
2018-02-14T09:14:53.168Z,3.02
2018-02-14T09:15:53.090Z,2.84
2018-02-14T09:16:53.012Z,2.75
2018-02-14T09:17:52.931Z,2.93
2018-02-14T09:18:52.845Z,2.79
2018-02-14T09:19:52.765Z,2.89
2018-02-14T09:20:52.690Z,3.03
2018-02-14T09:21:52.585Z,3.06
2018-02-14T09:22:52.517Z,3.18
2018-02-14T09:23:52.447Z,3.20
2018-02-14T09:24:52.337Z,3.20
2018-02-14T09:25:52.271Z,3.18
2018-02-14T09:26:52.188Z,3.15
2018-02-14T09:27:52.093Z,3.11
2018-02-14T09:28:52.022Z,3.00
2018-02-14T09:29:51.926Z,3.06
2018-02-14T09:30:51.867Z,3.10
2018-02-14T09:31:51.762Z,3.08
2018-02-14T09:32:51.688Z,3.26
2018-02-14T09:33:51.668Z,3.33
2018-02-14T09:34:51.516Z,3.42
2018-02-14T09:35:51.446Z,3.45
2018-02-14T09:36:51.369Z,3.26
2018-02-14T09:37:51.266Z,3.33
2018-02-14T09:38:51.192Z,3.26
2018-02-14T09:39:51.116Z,3.32
2018-02-14T09:40:51.046Z,3.29
2018-02-14T09:41:50.946Z,3.14
2018-02-14T09:42:50.852Z,3.20
2018-02-14T09:43:50.781Z,3.26
2018-02-14T09:44:50.693Z,2.89
2018-02-14T09:45:50.620Z,2.78
2018-02-14T09:46:50.536Z,2.66
2018-02-14T09:47:50.442Z,2.90
2018-02-14T09:48:50.367Z,2.95
2018-02-14T09:49:50.295Z,2.93
2018-02-14T09:50:50.206Z,2.84
2018-02-14T09:51:50.118Z,2.71
2018-02-14T09:52:50.046Z,2.69
2018-02-14T09:53:49.940Z,2.78
2018-02-14T09:54:49.875Z,2.95
2018-02-14T09:55:49.782Z,2.85
2018-02-14T09:56:49.720Z,3.03
2018-02-14T09:57:49.621Z,3.05
2018-02-14T09:58:49.544Z,3.06
2018-02-14T09:59:49.460Z,3.08
2018-02-14T10:00:49.371Z,3.06
2018-02-14T10:01:49.292Z,3.03
2018-02-14T10:02:49.211Z,3.14
2018-02-14T10:03:49.124Z,3.26
2018-02-14T10:04:49.044Z,3.35
2018-02-14T10:05:49.005Z,3.32
2018-02-14T10:06:48.867Z,3.45
2018-02-14T10:07:48.797Z,3.45
2018-02-14T10:08:48.725Z,3.57
2018-02-14T10:09:48.619Z,3.54
2018-02-14T10:10:48.546Z,3.61
2018-02-14T10:11:48.444Z,3.83
2018-02-14T10:12:48.366Z,3.70
2018-02-14T10:13:48.284Z,3.68
2018-02-14T10:14:48.217Z,3.79
2018-02-14T10:15:48.125Z,3.78
2018-02-14T10:16:48.040Z,3.73
2018-02-14T10:17:47.957Z,3.72
2018-02-14T10:18:47.875Z,3.72
2018-02-14T10:19:47.793Z,3.84
2018-02-14T10:20:47.707Z,3.83
2018-02-14T10:21:47.624Z,3.91
2018-02-14T10:22:47.532Z,3.54
2018-02-14T10:23:47.472Z,3.33
2018-02-14T10:24:47.372Z,3.68
2018-02-14T10:25:47.292Z,3.62
2018-02-14T10:26:47.213Z,3.69
2018-02-14T10:27:47.119Z,3.68
2018-02-14T10:28:47.048Z,3.80
2018-02-14T10:29:46.963Z,3.96
2018-02-14T10:30:46.870Z,4.02
2018-02-14T10:31:46.799Z,3.94
2018-02-14T10:32:46.717Z,4.08
2018-02-14T10:33:46.622Z,4.18
2018-02-14T10:34:46.547Z,4.15
2018-02-14T10:35:46.566Z,3.97
2018-02-14T10:36:46.369Z,4.16
2018-02-14T10:37:46.302Z,4.09
2018-02-14T10:38:46.391Z,4.20
2018-02-14T10:39:46.135Z,4.26
2018-02-14T10:40:46.052Z,4.05
2018-02-14T10:41:45.964Z,4.22
2018-02-14T10:42:45.899Z,4.09
2018-02-14T10:43:45.798Z,4.29
2018-02-14T10:44:45.714Z,4.34
2018-02-14T10:45:45.702Z,4.45
2018-02-14T10:46:45.546Z,4.47
2018-02-14T10:47:45.485Z,4.11
2018-02-14T10:48:45.399Z,4.22
2018-02-14T10:49:45.313Z,4.04
2018-02-14T10:50:45.226Z,4.24
2018-02-14T10:51:45.148Z,4.30
2018-02-14T10:52:45.493Z,4.47
2018-02-14T10:53:45.016Z,4.92
2018-02-14T10:54:44.924Z,5.30
2018-02-14T10:55:44.864Z,5.22
2018-02-14T10:56:44.937Z,5.07
2018-02-14T10:57:44.651Z,5.35
2018-02-14T10:58:44.597Z,5.49
2018-02-14T10:59:44.520Z,5.93
2018-02-14T11:00:44.404Z,5.89
2018-02-14T11:01:44.347Z,6.18
2018-02-14T11:02:44.252Z,6.14
2018-02-14T11:03:44.170Z,5.49
2018-02-14T11:04:44.082Z,5.64
2018-02-14T11:05:44.001Z,6.33
2018-02-14T11:06:43.927Z,6.43
2018-02-14T11:07:43.847Z,6.73
2018-02-14T11:08:43.746Z,6.70
2018-02-14T11:09:43.683Z,6.66
2018-02-14T11:10:43.592Z,6.94
2018-02-14T11:11:43.529Z,6.64
2018-02-14T11:12:43.435Z,6.67
2018-02-14T11:13:43.352Z,6.95
2018-02-14T11:14:43.280Z,6.46
2018-02-14T11:15:43.203Z,6.56
2018-02-14T11:16:43.100Z,6.81
2018-02-14T11:17:43.028Z,6.54
2018-02-14T11:18:42.957Z,6.74
2018-02-14T11:19:42.867Z,7.02
2018-02-14T11:20:42.796Z,6.95
2018-02-14T11:21:42.870Z,6.99
2018-02-14T11:22:42.628Z,6.49
2018-02-14T11:23:42.538Z,6.46
2018-02-14T11:24:42.512Z,6.34
2018-02-14T11:25:42.409Z,6.14
2018-02-14T11:26:42.304Z,6.01
2018-02-14T11:27:42.271Z,6.30
2018-02-14T11:28:42.144Z,6.01
2018-02-14T11:29:42.058Z,5.94
2018-02-14T11:30:42.010Z,6.22
2018-02-14T11:31:41.893Z,6.44
2018-02-14T11:32:41.816Z,6.94
2018-02-14T11:33:42.125Z,7.13
2018-02-14T11:34:41.694Z,7.28
2018-02-14T11:35:41.592Z,7.13
2018-02-14T11:36:41.547Z,7.35
2018-02-14T11:37:41.547Z,6.99
2018-02-14T11:38:41.469Z,6.48
2018-02-14T11:39:41.613Z,5.93
2018-02-14T11:40:41.260Z,5.86
2018-02-14T11:41:41.105Z,5.57
2018-02-14T11:42:41.117Z,5.58
2018-02-14T11:43:40.990Z,5.78
2018-02-14T11:44:40.870Z,5.76
2018-02-14T11:45:41.076Z,5.89
2018-02-14T11:46:40.686Z,6.03
2018-02-14T11:47:40.602Z,5.89
2018-02-14T11:48:40.520Z,6.70
2018-02-14T11:49:40.434Z,6.95
2018-02-14T11:50:40.353Z,7.43
2018-02-14T11:51:40.286Z,8.00
2018-02-14T11:52:40.260Z,8.04
2018-02-14T11:53:40.129Z,7.95
2018-02-14T11:54:40.032Z,7.43
2018-02-14T11:55:39.952Z,6.88
2018-02-14T11:56:39.883Z,7.48
2018-02-14T11:57:39.798Z,7.98
2018-02-14T11:58:39.737Z,8.23
2018-02-14T11:59:39.637Z,7.72
2018-02-14T12:00:39.558Z,8.25
2018-02-14T12:01:39.479Z,7.63
2018-02-14T12:02:39.406Z,6.70
2018-02-14T12:03:39.320Z,6.27
2018-02-14T12:04:39.235Z,6.08
2018-02-14T12:05:39.157Z,5.45
2018-02-14T12:06:39.082Z,5.15
2018-02-14T12:07:39.010Z,4.86
2018-02-14T12:08:38.921Z,4.63
2018-02-14T12:09:38.830Z,4.69
2018-02-14T12:10:38.792Z,4.72
2018-02-14T12:11:38.686Z,5.68
2018-02-14T12:12:38.607Z,7.03
2018-02-14T12:13:38.523Z,7.89
2018-02-14T12:14:38.429Z,8.19
2018-02-14T12:15:38.357Z,7.69
2018-02-14T12:16:38.288Z,6.33
2018-02-14T12:17:38.203Z,5.82
2018-02-14T12:18:38.113Z,5.38
2018-02-14T12:19:38.036Z,5.02
2018-02-14T12:20:37.957Z,5.02
2018-02-14T12:21:37.892Z,5.67
2018-02-14T12:22:37.800Z,5.22
2018-02-14T12:23:37.707Z,5.15
2018-02-14T12:24:37.671Z,5.07
2018-02-14T12:25:37.561Z,5.07
2018-02-14T12:26:37.485Z,4.94
2018-02-14T12:27:37.385Z,4.86
2018-02-14T12:28:37.315Z,4.85
2018-02-14T12:29:37.232Z,4.80
2018-02-14T12:30:37.164Z,4.72
2018-02-14T12:31:37.057Z,4.72
2018-02-14T12:32:36.983Z,5.54
2018-02-14T12:33:36.904Z,6.55
2018-02-14T12:34:36.830Z,6.03
2018-02-14T12:35:36.735Z,5.56
2018-02-14T12:36:36.666Z,5.45
2018-02-14T12:37:36.582Z,5.45
2018-02-14T12:38:36.505Z,5.25
2018-02-14T12:39:36.411Z,5.25
2018-02-14T12:40:36.331Z,5.36
2018-02-14T12:41:36.261Z,6.48
2018-02-14T12:42:36.853Z,6.04
2018-02-14T12:43:36.152Z,6.30
2018-02-14T12:44:36.112Z,5.93
2018-02-14T12:45:35.946Z,5.65
2018-02-14T12:46:35.975Z,5.48
2018-02-14T12:47:35.864Z,5.35
2018-02-14T12:48:35.818Z,5.18
2018-02-14T12:49:35.629Z,5.02
2018-02-14T12:50:35.555Z,5.17
2018-02-14T12:51:35.441Z,6.58
2018-02-14T12:52:35.375Z,7.50
2018-02-14T12:53:35.426Z,8.20
2018-02-14T12:54:35.463Z,8.34
2018-02-14T12:55:35.249Z,8.25
2018-02-14T12:56:35.064Z,7.92
2018-02-14T12:57:34.980Z,7.60
2018-02-14T12:58:35.149Z,7.75
2018-02-14T12:59:34.792Z,7.10
2018-02-14T13:00:34.889Z,7.75